createdAt,value
2022-09-02T00:01:00.094Z,96530.69
2022-09-02T00:03:33.111Z,96529.63
2022-09-02T00:05:59.487Z,96528.56
2022-09-02T00:08:25.520Z,96522.19
2022-09-02T00:10:51.907Z,96521.63
2022-09-02T00:13:19.899Z,96527.44
2022-09-02T00:15:47.930Z,96516.31
2022-09-02T00:18:15.780Z,96514.72
2022-09-02T00:20:46.465Z,96512.84
2022-09-02T00:23:12.660Z,96516.28
2022-09-02T00:25:39.592Z,96517.66
2022-09-02T00:28:06.518Z,96515.78
2022-09-02T00:30:34.900Z,96518.97
2022-09-02T00:33:00.986Z,96512.84
2022-09-02T00:35:27.182Z,96512.03
2022-09-02T00:37:53.251Z,96515.78
2022-09-02T00:40:19.247Z,96507.78
2022-09-02T00:42:45.134Z,96508.03
2022-09-02T00:45:11.224Z,96510.97
2022-09-02T00:47:37.342Z,96504.34
2022-09-02T00:50:09.145Z,96506.19
2022-09-02T00:52:45.626Z,96501.13
2022-09-02T00:55:18.815Z,96500.84
2022-09-02T00:58:00.146Z,96500.88
2022-09-02T01:00:34.520Z,96496.06
2022-09-02T01:03:05.407Z,96499.53
2022-09-02T01:05:35.839Z,96496.34
2022-09-02T01:08:06.590Z,96489.16
2022-09-02T01:10:34.085Z,96489.41
2022-09-02T01:13:06.324Z,96488.88
2022-09-02T01:15:36.601Z,96491.81
2022-09-02T01:18:07.010Z,96484.41
2022-09-02T01:20:35.842Z,96485.19
2022-09-02T01:23:01.870Z,96481.16
2022-09-02T01:25:31.081Z,96482.47
2022-09-02T01:28:07.740Z,96479.56
2022-09-02T01:30:35.346Z,96489.13
2022-09-02T01:33:01.528Z,96480.88
2022-09-02T01:35:28.765Z,96484.53
2022-09-02T01:37:57.300Z,96481.91
2022-09-02T01:40:24.838Z,96477.16
2022-09-02T01:42:55.317Z,96477.41
2022-09-02T01:45:21.992Z,96472.34
2022-09-02T01:47:48.025Z,96462.53
2022-09-02T01:50:14.035Z,96469.13
2022-09-02T01:52:39.885Z,96471.78
2022-09-02T01:55:05.940Z,96465.16
2022-09-02T01:57:32.025Z,96470.16
2022-09-02T01:59:58.311Z,96468.94
2022-09-02T02:02:24.176Z,96464.66
2022-09-02T02:04:50.737Z,96465.13
2022-09-02T02:07:18.649Z,96461.06
2022-09-02T02:09:44.851Z,96449.47
2022-09-02T02:12:10.782Z,96444.13
2022-09-02T02:14:36.994Z,96452.09
2022-09-02T02:17:03.829Z,96448.91
2022-09-02T02:19:29.864Z,96453.63
2022-09-02T02:21:57.541Z,96449.16
2022-09-02T02:24:24.240Z,96451.50
2022-09-02T02:26:50.339Z,96456.03
2022-09-02T02:29:16.270Z,96451.56
2022-09-02T02:31:42.932Z,96450.47
2022-09-02T02:34:09.805Z,96456.34
2022-09-02T02:36:37.087Z,96442.19
2022-09-02T02:39:04.764Z,96448.28
2022-09-02T02:41:31.471Z,96451.19
2022-09-02T02:43:57.410Z,96443.81
2022-09-02T02:46:23.205Z,96451.00
2022-09-02T02:48:49.078Z,96444.06
2022-09-02T02:51:15.010Z,96441.66
2022-09-02T02:53:40.822Z,96445.09
2022-09-02T02:56:07.915Z,96444.53
2022-09-02T02:58:33.984Z,96446.16
2022-09-02T03:01:00.342Z,96447.75
2022-09-02T03:03:27.274Z,96444.28
2022-09-02T03:05:53.315Z,96440.06
2022-09-02T03:08:21.074Z,96445.09
2022-09-02T03:10:50.768Z,96439.75
2022-09-02T03:13:17.328Z,96433.66
2022-09-02T03:15:43.258Z,96435.50
2022-09-02T03:18:09.176Z,96434.63
2022-09-02T03:20:35.178Z,96436.19
2022-09-02T03:23:01.115Z,96441.25
2022-09-02T03:25:32.248Z,96433.78
2022-09-02T03:28:02.464Z,96435.09
2022-09-02T03:30:29.877Z,96435.13
2022-09-02T03:33:03.613Z,96430.31
2022-09-02T03:35:30.716Z,96434.56
2022-09-02T03:37:57.423Z,96430.31
2022-09-02T03:40:26.930Z,96430.69
2022-09-02T03:42:56.746Z,96424.16
2022-09-02T03:45:25.785Z,96427.84
2022-09-02T03:47:53.361Z,96420.16
2022-09-02T03:50:33.120Z,96420.78
2022-09-02T03:52:59.714Z,96418.88
2022-09-02T03:55:26.573Z,96418.22
2022-09-02T03:57:52.643Z,96421.50
2022-09-02T04:00:23.293Z,96422.50
2022-09-02T04:02:50.612Z,96418.47
2022-09-02T04:05:16.701Z,96415.78
2022-09-02T04:07:43.713Z,96415.06
2022-09-02T04:10:13.281Z,96418.53
2022-09-02T04:12:39.459Z,96416.44
2022-09-02T04:15:07.617Z,96418.06
2022-09-02T04:18:29.619Z,96419.34
2022-09-02T04:21:09.900Z,96423.31
2022-09-02T04:23:36.381Z,96418.84
2022-09-02T04:26:12.683Z,96419.09
2022-09-02T04:28:39.084Z,96412.16
2022-09-02T04:31:10.793Z,96408.41
2022-09-02T04:33:37.968Z,96413.22
2022-09-02T04:36:07.071Z,96410.34
2022-09-02T04:38:34.333Z,96411.69
2022-09-02T04:41:01.185Z,96402.69
2022-09-02T04:43:27.025Z,96405.78
2022-09-02T04:45:52.938Z,96408.00
2022-09-02T04:48:19.092Z,96407.06
2022-09-02T04:50:45.234Z,96414.25
2022-09-02T04:53:11.703Z,96409.81
2022-09-02T04:55:39.995Z,96415.94
2022-09-02T04:58:05.815Z,96411.88
2022-09-02T05:00:32.092Z,96409.91
2022-09-02T05:02:58.033Z,96406.88
2022-09-02T05:05:23.924Z,96411.00
2022-09-02T05:07:49.836Z,96406.25
2022-09-02T05:10:15.633Z,96408.13
2022-09-02T05:12:43.005Z,96407.34
2022-09-02T05:15:11.514Z,96414.75
2022-09-02T05:17:37.768Z,96419.00
2022-09-02T05:20:05.460Z,96417.66
2022-09-02T05:22:32.230Z,96414.00
2022-09-02T05:25:04.433Z,96410.59
2022-09-02T05:27:30.344Z,96411.94
2022-09-02T05:29:58.699Z,96418.34
2022-09-02T05:32:26.744Z,96415.91
2022-09-02T05:34:53.948Z,96411.47
2022-09-02T05:37:20.144Z,96412.53
2022-09-02T05:39:46.075Z,96409.09
2022-09-02T05:42:11.888Z,96407.50
2022-09-02T05:44:38.280Z,96415.59
2022-09-02T05:47:04.550Z,96415.38
2022-09-02T05:49:30.579Z,96404.47
2022-09-02T05:51:58.904Z,96411.88
2022-09-02T05:54:28.037Z,96404.44
2022-09-02T05:56:58.331Z,96405.50
2022-09-02T05:59:26.277Z,96400.75
2022-09-02T06:01:53.205Z,96407.66
2022-09-02T06:04:21.462Z,96404.50
2022-09-02T06:06:50.988Z,96403.72
2022-09-02T06:09:20.208Z,96410.66
2022-09-02T06:11:48.757Z,96411.75
2022-09-02T06:14:21.035Z,96401.66
2022-09-02T06:16:49.672Z,96409.34
2022-09-02T06:19:19.623Z,96407.75
2022-09-02T06:21:46.636Z,96408.00
2022-09-02T06:24:12.685Z,96407.22
2022-09-02T06:26:39.523Z,96412.81
2022-09-02T06:29:06.552Z,96410.97
2022-09-02T06:31:34.593Z,96412.31
2022-09-02T06:34:01.218Z,96413.13
2022-09-02T06:36:30.060Z,96416.06
2022-09-02T06:38:58.195Z,96408.09
2022-09-02T06:41:28.094Z,96411.53
2022-09-02T06:44:00.288Z,96409.41
2022-09-02T06:46:35.644Z,96403.03
2022-09-02T06:49:02.813Z,96405.72
2022-09-02T06:51:31.769Z,96414.47
2022-09-02T06:53:58.334Z,96408.38
2022-09-02T06:56:25.893Z,96408.34
2022-09-02T06:58:52.197Z,96409.41
2022-09-02T07:01:23.731Z,96415.81
2022-09-02T07:04:08.800Z,96410.50
2022-09-02T07:06:37.215Z,96414.22
2022-09-02T07:09:05.204Z,96413.13
2022-09-02T07:11:32.040Z,96417.09
2022-09-02T07:14:00.970Z,96415.53
2022-09-02T07:16:29.535Z,96413.38
2022-09-02T07:18:56.298Z,96411.78
2022-09-02T07:21:22.877Z,96412.03
2022-09-02T07:23:48.702Z,96408.78
2022-09-02T07:26:16.603Z,96413.81
2022-09-02T07:28:43.005Z,96414.88
2022-09-02T07:31:10.587Z,96415.41
2022-09-02T07:33:36.887Z,96412.44
2022-09-02T07:36:05.060Z,96416.94
2022-09-02T07:38:37.343Z,96418.00
2022-09-02T07:41:04.623Z,96420.13
2022-09-02T07:43:31.644Z,96415.06
2022-09-02T07:46:00.030Z,96412.59
2022-09-02T07:48:27.305Z,96411.50
2022-09-02T07:50:53.949Z,96414.41
2022-09-02T07:53:20.091Z,96411.22
2022-09-02T07:55:46.646Z,96409.03
2022-09-02T07:58:16.049Z,96407.97
2022-09-02T08:00:42.818Z,96408.69
2022-09-02T08:03:10.629Z,96405.13
2022-09-02T08:05:39.057Z,96401.44
2022-09-02T08:08:06.009Z,96405.13
2022-09-02T08:10:32.267Z,96403.13
2022-09-02T08:13:02.424Z,96407.34
2022-09-02T08:15:30.434Z,96409.78
2022-09-02T08:17:56.775Z,96412.34
2022-09-02T08:20:23.809Z,96407.41
2022-09-02T08:22:55.995Z,96408.81
2022-09-02T08:25:35.829Z,96417.78
2022-09-02T08:28:02.305Z,96411.00
2022-09-02T08:30:28.174Z,96413.75
2022-09-02T08:32:54.109Z,96414.72
2022-09-02T08:35:20.946Z,96405.84
2022-09-02T08:37:46.779Z,96414.97
2022-09-02T08:40:16.788Z,96414.50
2022-09-02T08:42:51.821Z,96412.56
2022-09-02T08:45:29.551Z,96411.09
2022-09-02T08:48:07.655Z,96408.69
2022-09-02T08:50:36.874Z,96407.38
2022-09-02T08:53:29.843Z,96409.63
2022-09-02T08:55:58.365Z,96403.72
2022-09-02T08:58:28.284Z,96400.69
2022-09-02T09:01:09.876Z,96397.59
2022-09-02T09:03:50.893Z,96401.13
2022-09-02T09:06:34.081Z,96394.81
2022-09-02T09:09:22.403Z,96390.22
2022-09-02T09:12:07.357Z,96401.78
2022-09-02T09:14:47.912Z,96397.53
2022-09-02T09:17:13.683Z,96392.81
2022-09-02T09:19:47.188Z,96384.38
2022-09-02T09:22:17.757Z,96390.06
2022-09-02T09:24:49.013Z,96395.56
2022-09-02T09:27:20.384Z,96380.69
2022-09-02T09:29:48.531Z,96378.34
2022-09-02T09:32:36.531Z,96374.78
2022-09-02T09:35:06.442Z,96381.06
2022-09-02T09:37:38.499Z,96385.34
2022-09-02T09:40:26.557Z,96375.72
2022-09-02T09:43:07.101Z,96375.81
2022-09-02T09:45:46.013Z,96380.09
2022-09-02T09:48:29.157Z,96374.91
2022-09-02T09:50:54.878Z,96383.06
2022-09-02T09:53:21.869Z,96374.34
2022-09-02T09:55:54.105Z,96372.84
2022-09-02T09:58:22.313Z,96374.03
2022-09-02T10:00:48.403Z,96374.22
2022-09-02T10:03:22.938Z,96366.97
2022-09-02T10:05:53.433Z,96364.44
2022-09-02T10:08:22.445Z,96365.53
2022-09-02T10:11:06.038Z,96364.97
2022-09-02T10:13:33.956Z,96366.59
2022-09-02T10:16:08.463Z,96364.56
2022-09-02T10:18:52.817Z,96361.50
2022-09-02T10:21:32.778Z,96364.41
2022-09-02T10:24:13.037Z,96359.34
2022-09-02T10:26:52.384Z,96348.03
2022-09-02T10:29:55.365Z,96355.03
2022-09-02T10:32:46.022Z,96354.28
2022-09-02T10:35:28.789Z,96350.03
2022-09-02T10:38:16.303Z,96361.59
2022-09-02T10:40:57.961Z,96350.81
2022-09-02T10:43:56.891Z,96345.91
2022-09-02T10:46:25.129Z,96355.97
2022-09-02T10:49:20.420Z,96345.03
2022-09-02T10:51:53.833Z,96343.31
2022-09-02T10:54:57.280Z,96342.81
2022-09-02T10:57:32.073Z,96343.94
2022-09-02T11:00:26.128Z,96343.19
2022-09-02T11:03:12.097Z,96346.44
2022-09-02T11:05:49.463Z,96339.47
2022-09-02T11:08:36.144Z,96337.16
2022-09-02T11:11:10.859Z,96337.84
2022-09-02T11:13:52.422Z,96328.28
2022-09-02T11:16:20.410Z,96334.75
2022-09-02T11:19:01.971Z,96329.00
2022-09-02T11:22:04.939Z,96328.63
2022-09-02T11:24:37.967Z,96314.53
2022-09-02T11:27:42.033Z,96310.88
2022-09-02T11:30:17.569Z,96307.28
2022-09-02T11:32:46.317Z,96317.09
2022-09-02T11:35:41.960Z,96301.72
2022-09-02T11:38:42.041Z,96311.19
2022-09-02T11:41:37.871Z,96316.41
2022-09-02T11:44:15.986Z,96322.78
2022-09-02T11:46:54.281Z,96312.69
2022-09-02T11:50:01.513Z,96312.78
2022-09-02T11:52:52.579Z,96314.28
2022-09-02T11:55:40.938Z,96304.31
2022-09-02T11:58:07.730Z,96303.19
2022-09-02T12:00:38.375Z,96307.09
2022-09-02T12:03:11.876Z,96309.44
2022-09-02T12:05:43.004Z,96297.91
2022-09-02T12:08:35.999Z,96296.72
2022-09-02T12:11:06.583Z,96305.81
2022-09-02T12:13:44.951Z,96298.25
2022-09-02T12:16:18.541Z,96295.41
2022-09-02T12:18:52.783Z,96290.94
2022-09-02T12:21:23.305Z,96295.09
2022-09-02T12:23:55.149Z,96294.91
2022-09-02T12:26:50.001Z,96286.13
2022-09-02T12:29:23.965Z,96286.31
2022-09-02T12:31:52.148Z,96281.28
2022-09-02T12:34:24.810Z,96280.44
2022-09-02T12:36:54.531Z,96270.31
2022-09-02T12:39:29.733Z,96268.78
2022-09-02T12:41:55.831Z,96274.63
2022-09-02T12:44:28.177Z,96274.50
2022-09-02T12:46:57.816Z,96278.94
2022-09-02T12:49:38.264Z,96269.78
2022-09-02T12:52:07.769Z,96263.78
2022-09-02T12:54:49.779Z,96260.25
2022-09-02T12:57:17.288Z,96268.09
2022-09-02T12:59:45.439Z,96267.16
2022-09-02T13:02:41.708Z,96270.22
2022-09-02T13:05:29.664Z,96261.03
2022-09-02T13:08:47.262Z,96258.81
2022-09-02T13:11:40.869Z,96258.03
2022-09-02T13:14:13.143Z,96254.56
2022-09-02T13:16:55.628Z,96246.06
2022-09-02T13:19:34.073Z,96252.66
2022-09-02T13:22:08.835Z,96246.91
2022-09-02T13:25:00.615Z,96248.22
2022-09-02T13:28:06.118Z,96238.56
2022-09-02T13:30:54.112Z,96240.31
2022-09-02T13:33:20.931Z,96228.41
2022-09-02T13:35:53.728Z,96235.56
2022-09-02T13:38:24.042Z,96233.97
2022-09-02T13:40:51.357Z,96233.59
2022-09-02T13:43:20.497Z,96239.88
2022-09-02T13:45:48.438Z,96237.44
2022-09-02T13:48:25.125Z,96226.53
2022-09-02T13:50:53.902Z,96222.69
2022-09-02T13:56:24.862Z,96219.53
2022-09-02T13:58:57.347Z,96215.88
2022-09-02T14:01:28.291Z,96222.50
2022-09-02T14:03:57.385Z,96208.75
2022-09-02T14:06:32.478Z,96206.88
2022-09-02T14:09:01.297Z,96199.28
2022-09-02T14:11:29.317Z,96206.75
2022-09-02T14:13:56.233Z,96207.94
2022-09-02T14:16:26.093Z,96208.31
2022-09-02T14:19:07.327Z,96200.03
2022-09-02T14:21:35.102Z,96202.22
2022-09-02T14:24:01.889Z,96203.47
2022-09-02T14:26:34.533Z,96196.25
2022-09-02T14:29:11.893Z,96196.09
2022-09-02T14:31:37.822Z,96191.66
2022-09-02T14:34:05.591Z,96198.09
2022-09-02T14:36:37.194Z,96187.38
2022-09-02T14:39:16.093Z,96183.47
2022-09-02T14:41:44.951Z,96182.53
2022-09-02T14:44:17.114Z,96182.56
2022-09-02T14:46:52.490Z,96182.22
2022-09-02T14:49:31.712Z,96179.34
2022-09-02T14:52:05.010Z,96188.91
2022-09-02T14:54:51.748Z,96184.56
2022-09-02T14:57:22.255Z,96180.50
2022-09-02T14:59:49.062Z,96184.97
2022-09-02T15:02:26.945Z,96178.50
2022-09-02T15:04:57.622Z,96179.31
2022-09-02T15:07:25.766Z,96188.63
2022-09-02T15:09:51.877Z,96174.56
2022-09-02T15:12:31.340Z,96179.72
2022-09-02T15:14:57.971Z,96175.94
2022-09-02T15:17:24.641Z,96165.03
2022-09-02T15:19:50.944Z,96163.19
2022-09-02T15:22:17.923Z,96161.31
2022-09-02T15:24:43.980Z,96159.28
2022-09-02T15:27:10.652Z,96155.00
2022-09-02T15:29:36.588Z,96158.50
2022-09-02T15:32:03.421Z,96151.53
2022-09-02T15:34:33.902Z,96152.19
2022-09-02T15:37:00.559Z,96144.56
2022-09-02T15:39:27.219Z,96139.81
2022-09-02T15:41:54.742Z,96139.44
2022-09-02T15:44:28.679Z,96147.84
2022-09-02T15:46:55.232Z,96135.84
2022-09-02T15:49:22.953Z,96134.13
2022-09-02T15:51:49.653Z,96136.19
2022-09-02T15:54:18.031Z,96131.56
2022-09-02T15:56:46.040Z,96138.22
2022-09-02T15:59:19.512Z,96129.06
2022-09-02T16:01:51.068Z,96125.09
2022-09-02T16:04:17.372Z,96129.03
2022-09-02T16:06:47.378Z,96126.75
2022-09-02T16:09:15.075Z,96126.25
2022-09-02T16:11:47.212Z,96119.94
2022-09-02T16:14:14.226Z,96124.84
2022-09-02T16:16:41.761Z,96117.25
2022-09-02T16:19:09.344Z,96116.47
2022-09-02T16:21:38.389Z,96121.44
2022-09-02T16:24:05.731Z,96119.84
2022-09-02T16:26:34.155Z,96115.13
2022-09-02T16:29:03.283Z,96113.88
2022-09-02T16:31:30.794Z,96111.19
2022-09-02T16:33:59.852Z,96103.28
2022-09-02T16:36:31.959Z,96105.47
2022-09-02T16:39:00.349Z,96102.88
2022-09-02T16:41:34.922Z,96100.66
2022-09-02T16:44:24.949Z,96103.38
2022-09-02T16:46:51.859Z,96097.56
2022-09-02T16:49:19.391Z,96096.47
2022-09-02T16:51:47.117Z,96083.34
2022-09-02T16:54:17.947Z,96091.88
2022-09-02T16:56:48.814Z,96083.81
2022-09-02T16:59:14.733Z,96084.00
2022-09-02T17:01:40.799Z,96089.19
2022-09-02T17:04:08.735Z,96082.25
2022-09-02T17:06:39.793Z,96085.56
2022-09-02T17:09:08.545Z,96081.94
2022-09-02T17:11:37.198Z,96080.75
2022-09-02T17:14:05.794Z,96090.38
2022-09-02T17:16:37.461Z,96090.91
2022-09-02T17:19:04.302Z,96089.38
2022-09-02T17:21:40.576Z,96081.63
2022-09-02T17:24:08.045Z,96081.69
2022-09-02T17:26:38.658Z,96081.25
2022-09-02T17:29:37.880Z,96086.66
2022-09-02T17:32:02.282Z,96082.69
2022-09-02T17:34:28.133Z,96083.09
2022-09-02T17:36:53.929Z,96089.75
2022-09-02T17:39:20.019Z,96086.63
2022-09-02T17:41:56.448Z,96081.88
2022-09-02T17:44:26.877Z,96081.81
2022-09-02T17:46:57.209Z,96087.41
2022-09-02T17:49:23.073Z,96088.91
2022-09-02T17:51:49.377Z,96087.06
2022-09-02T17:54:15.428Z,96094.06
2022-09-02T17:57:02.048Z,96088.16
2022-09-02T17:59:39.867Z,96089.75
2022-09-02T18:02:14.634Z,96084.53
2022-09-02T18:05:01.847Z,96087.44
2022-09-02T18:08:00.788Z,96094.84
2022-09-02T18:10:39.709Z,96096.88
2022-09-02T18:13:09.324Z,96089.53
2022-09-02T18:15:58.077Z,96091.28
2022-09-02T18:18:24.624Z,96098.72
2022-09-02T18:21:08.550Z,96093.16
2022-09-02T18:24:10.093Z,96091.81
2022-09-02T18:26:35.879Z,96092.97
2022-09-02T18:29:05.197Z,96091.81
2022-09-02T18:31:48.977Z,96093.06
2022-09-02T18:34:36.376Z,96097.53
2022-09-02T18:37:15.544Z,96098.72
2022-09-02T18:40:12.493Z,96101.78
2022-09-02T18:42:59.637Z,96097.31
2022-09-02T18:45:38.523Z,96103.47
2022-09-02T18:48:13.267Z,96098.81
2022-09-02T18:50:52.347Z,96102.56
2022-09-02T18:53:22.677Z,96106.03
2022-09-02T18:55:51.448Z,96108.00
2022-09-02T18:58:33.229Z,96107.31
2022-09-02T19:01:38.862Z,96106.78
2022-09-02T19:04:04.777Z,96112.03
2022-09-02T19:06:35.743Z,96115.41
2022-09-02T19:09:06.272Z,96109.34
2022-09-02T19:11:34.450Z,96117.06
2022-09-02T19:14:17.988Z,96105.94
2022-09-02T19:16:44.021Z,96117.13
2022-09-02T19:19:09.998Z,96107.50
2022-09-02T19:21:40.293Z,96109.75
2022-09-02T19:24:11.969Z,96116.34
2022-09-02T19:26:42.423Z,96123.28
2022-09-02T19:29:12.102Z,96119.44
2022-09-02T19:31:40.401Z,96122.03
2022-09-02T19:34:07.608Z,96119.94
2022-09-02T19:36:38.236Z,96119.78
2022-09-02T19:39:04.719Z,96125.44
2022-09-02T19:41:30.569Z,96119.78
2022-09-02T19:43:56.618Z,96122.63
2022-09-02T19:47:04.112Z,96118.06
2022-09-02T19:49:09.342Z,96123.59
2022-09-02T19:51:35.677Z,96116.84
2022-09-02T19:54:02.646Z,96117.44
2022-09-02T19:56:28.572Z,96114.38
2022-09-02T19:58:54.417Z,96110.66
2022-09-02T20:01:20.369Z,96119.91
2022-09-02T20:03:46.288Z,96112.41
2022-09-02T20:06:12.145Z,96108.25
2022-09-02T20:08:37.985Z,96104.63
2022-09-02T20:11:05.346Z,96104.63
2022-09-02T20:13:40.734Z,96109.09
2022-09-02T20:16:19.478Z,96112.69
2022-09-02T20:18:47.568Z,96112.81
2022-09-02T20:21:20.518Z,96112.75
2022-09-02T20:23:47.192Z,96106.91
2022-09-02T20:26:23.221Z,96106.47
2022-09-02T20:29:02.077Z,96100.44
2022-09-02T20:31:30.721Z,96107.34
2022-09-02T20:34:26.625Z,96101.31
2022-09-02T20:37:23.623Z,96109.72
2022-09-02T20:40:10.863Z,96106.25
2022-09-02T20:43:03.737Z,96107.84
2022-09-02T20:45:32.252Z,96111.84
2022-09-02T20:48:10.063Z,96107.91
2022-09-02T20:51:03.407Z,96102.13
2022-09-02T20:53:45.565Z,96104.63
2022-09-02T20:56:28.153Z,96104.69
2022-09-02T20:59:03.501Z,96106.66
2022-09-02T21:01:33.543Z,96099.59
2022-09-02T21:03:59.310Z,96107.53
2022-09-02T21:06:31.115Z,96100.28
2022-09-02T21:09:05.758Z,96105.34
2022-09-02T21:11:42.600Z,96097.66
2022-09-02T21:14:14.521Z,96097.44
2022-09-02T21:16:58.716Z,96102.28
2022-09-02T21:20:18.992Z,96094.81
2022-09-02T21:22:49.528Z,96093.66
2022-09-02T21:25:40.947Z,96085.06
2022-09-02T21:28:26.526Z,96096.09
2022-09-02T21:31:01.195Z,96086.34
2022-09-02T21:33:31.926Z,96080.84
2022-09-02T21:35:59.335Z,96083.28
2022-09-02T21:38:36.530Z,96082.03
2022-09-02T21:41:38.667Z,96088.75
2022-09-02T21:44:21.956Z,96082.41
2022-09-02T21:47:25.213Z,96086.59
2022-09-02T21:50:07.437Z,96077.56
2022-09-02T21:52:56.357Z,96084.03
2022-09-02T21:55:44.038Z,96078.44
2022-09-02T21:58:21.811Z,96079.22
2022-09-02T22:00:58.617Z,96073.91
2022-09-02T22:03:39.287Z,96079.19
2022-09-02T22:06:35.357Z,96075.59
2022-09-02T22:09:04.208Z,96070.00
2022-09-02T22:11:42.822Z,96072.50
2022-09-02T22:14:15.410Z,96071.34
2022-09-02T22:16:45.337Z,96074.47
2022-09-02T22:19:12.816Z,96079.19
2022-09-02T22:21:50.359Z,96063.69
2022-09-02T22:24:20.878Z,96058.38
2022-09-02T22:26:57.955Z,96060.78
2022-09-02T22:29:37.015Z,96064.28
2022-09-02T22:32:07.355Z,96067.22
2022-09-02T22:34:42.912Z,96061.63
2022-09-02T22:37:16.413Z,96055.47
2022-09-02T22:39:55.711Z,96058.72
2022-09-02T22:42:34.087Z,96057.22
2022-09-02T22:45:30.772Z,96063.56
2022-09-02T22:48:26.773Z,96055.06
2022-09-02T22:51:19.245Z,96052.69
2022-09-02T22:53:47.313Z,96056.97
2022-09-02T22:56:21.892Z,96056.69
2022-09-02T22:59:16.150Z,96053.16
2022-09-02T23:01:54.689Z,96050.88
2022-09-02T23:04:29.248Z,96050.06
2022-09-02T23:06:57.473Z,96046.59
2022-09-02T23:09:23.368Z,96056.19
2022-09-02T23:12:25.357Z,96058.09
2022-09-02T23:15:37.647Z,96048.56
2022-09-02T23:18:41.663Z,96055.75
2022-09-02T23:21:39.868Z,96058.47
2022-09-02T23:24:32.255Z,96045.97
2022-09-02T23:27:29.532Z,96045.38
2022-09-02T23:29:55.392Z,96043.56
2022-09-02T23:32:51.354Z,96045.97
2022-09-02T23:35:17.236Z,96038.00
2022-09-02T23:38:04.781Z,96036.41
2022-09-02T23:40:39.756Z,96035.34
2022-09-02T23:43:05.972Z,96028.16
2022-09-02T23:45:33.117Z,96033.25
2022-09-02T23:48:10.737Z,96024.50
2022-09-02T23:50:57.351Z,96035.91
2022-09-02T23:53:36.759Z,96035.28
2022-09-02T23:56:17.710Z,96020.69
2022-09-02T23:58:59.018Z,96017.50
